Time;durP1;ratioP1;P1;durP2;ratioP2;P2;SDS_P1;SDS_P2;PMS_P1;PMS_P2;Temp;Humidity;BMP_temperature;BMP_pressure;BME280_temperature;BME280_humidity;BME280_pressure;Samples;Min_cycle;Max_cycle;Signal;HPM_P1;HPM_P2
2022/08/12 00:44:41;;;;;;;20.58;13.00;;;;;;;;;;5018685;28;20022;-63
2022/08/12 00:47:07;;;;;;;17.27;12.73;;;;;;;;;;5018267;28;20029;-63
2022/08/12 00:49:34;;;;;;;15.95;12.63;;;;;;;;;;5018352;28;20029;-63
2022/08/12 00:52:10;;;;;;;18.50;13.05;;;;;;;;;;5018439;28;20025;-63
2022/08/12 00:54:44;;;;;;;16.35;12.80;;;;;;;;;;5018515;28;20058;-63
2022/08/12 00:57:22;;;;;;;17.65;12.75;;;;;;;;;;5017874;28;20025;-62
2022/08/12 00:59:48;;;;;;;17.77;12.77;;;;;;;;;;5018592;28;20033;-62
2022/08/12 01:02:21;;;;;;;16.90;12.82;;;;;;;;;;5018294;28;20486;-62
2022/08/12 01:13:13;;;;;;;16.67;13.30;;;;;;;;;;5015247;28;20099;-63
2022/08/12 01:15:39;;;;;;;17.02;12.80;;;;;;;;;;5030183;28;20076;-63
2022/08/12 01:18:05;;;;;;;18.73;12.82;;;;;;;;;;5013963;28;20029;-63
2022/08/12 01:20:57;;;;;;;16.23;12.55;;;;;;;;;;5014839;28;20053;-63
2022/08/12 01:23:26;;;;;;;16.90;12.90;;;;;;;;;;5006317;28;20070;-63
2022/08/12 01:25:53;;;;;;;17.27;12.90;;;;;;;;;;5014845;28;20506;-63
2022/08/12 01:28:20;;;;;;;18.05;13.60;;;;;;;;;;5013968;28;20022;-63
2022/08/12 01:30:48;;;;;;;19.33;12.68;;;;;;;;;;5014509;28;20030;-63
2022/08/12 01:33:16;;;;;;;19.95;13.82;;;;;;;;;;5029875;28;20018;-63
2022/08/12 01:35:47;;;;;;;18.60;13.77;;;;;;;;;;5014585;28;20033;-63
2022/08/12 01:38:16;;;;;;;19.60;14.15;;;;;;;;;;5013898;28;20053;-63
2022/08/12 01:40:44;;;;;;;22.88;15.38;;;;;;;;;;5014499;28;20026;-63
2022/08/12 01:43:13;;;;;;;23.08;15.77;;;;;;;;;;5013325;28;20542;-64
2022/08/12 01:45:46;;;;;;;23.55;17.88;;;;;;;;;;5014310;28;20501;-65
2022/08/12 01:48:19;;;;;;;28.45;20.23;;;;;;;;;;5013586;28;20033;-64
2022/08/12 01:50:55;;;;;;;26.95;19.95;;;;;;;;;;5014206;28;20029;-64
2022/08/12 01:53:24;;;;;;;31.90;22.42;;;;;;;;;;5014491;28;20097;-63
2022/08/12 01:55:51;;;;;;;32.30;22.77;;;;;;;;;;5029451;28;20125;-64
2022/08/12 01:59:45;;;;;;;32.00;22.48;;;;;;;;;;5013732;28;20449;-65
2022/08/12 02:01:23;;;;;;;36.70;23.30;;;;;;;;;;5013981;28;20026;-64
2022/08/12 02:13:00;;;;;;;31.42;21.23;;;;;;;;;;5053606;22;20111;-59
2022/08/12 02:15:45;;;;;;;31.38;21.40;;;;;;;;;;5033522;28;20028;-58
2022/08/12 02:18:30;;;;;;;29.75;21.48;;;;;;;;;;5031372;28;20034;-56
2022/08/12 02:21:33;;;;;;;31.05;21.48;;;;;;;;;;5031840;28;20389;-59
2022/08/12 02:23:59;;;;;;;30.38;21.20;;;;;;;;;;5031074;28;20112;-57
2022/08/12 02:26:29;;;;;;;29.67;20.45;;;;;;;;;;5032935;28;20041;-58
2022/08/12 02:28:55;;;;;;;27.85;20.35;;;;;;;;;;5032382;28;20542;-57
2022/08/12 02:31:22;;;;;;;29.80;20.40;;;;;;;;;;5033088;28;20032;-56
2022/08/12 02:33:48;;;;;;;27.73;20.00;;;;;;;;;;5031889;28;20029;-59
2022/08/12 02:36:15;;;;;;;24.23;18.35;;;;;;;;;;5033238;28;20096;-58
2022/08/12 02:38:42;;;;;;;23.33;18.27;;;;;;;;;;5032603;28;20025;-57
2022/08/12 02:41:09;;;;;;;24.23;17.80;;;;;;;;;;5033278;28;20022;-56
2022/08/12 02:43:39;;;;;;;24.42;17.85;;;;;;;;;;5033345;28;20045;-57
2022/08/12 02:46:05;;;;;;;23.55;17.63;;;;;;;;;;5032935;28;20029;-57
2022/08/12 02:48:49;;;;;;;25.98;18.35;;;;;;;;;;5032578;28;20025;-57
2022/08/12 02:51:18;;;;;;;25.73;18.42;;;;;;;;;;5033024;28;20026;-57
2022/08/12 02:53:44;;;;;;;;;;;;;;;;;;5033308;28;20052;-59
2022/08/12 02:56:11;;;;;;;29.27;20.48;;;;;;;;;;5032912;28;19905;-58
2022/08/12 02:58:37;;;;;;;32.70;23.67;;;;;;;;;;5030731;28;20031;-60
2022/08/12 03:01:08;;;;;;;33.97;24.38;;;;;;;;;;5033076;28;20504;-57
2022/08/12 03:03:34;;;;;;;35.85;26.60;;;;;;;;;;5032787;28;20385;-61
2022/08/12 03:06:06;;;;;;;42.72;29.35;;;;;;;;;;5031365;28;20401;-57
2022/08/12 03:08:39;;;;;;;48.20;32.75;;;;;;;;;;5031799;28;20454;-58
2022/08/12 03:11:09;;;;;;;47.60;34.83;;;;;;;;;;5032403;28;20087;-59
2022/08/12 03:13:38;;;;;;;52.42;36.00;;;;;;;;;;5032832;28;20108;-57
2022/08/12 03:16:06;;;;;;;46.78;35.38;;;;;;;;;;5032474;28;20032;-56
2022/08/12 03:18:33;;;;;;;44.33;33.08;;;;;;;;;;5031827;28;20033;-57
2022/08/12 03:21:00;;;;;;;47.70;32.67;;;;;;;;;;5030926;28;20025;-60
2022/08/12 03:23:27;;;;;;;42.80;33.28;;;;;;;;;;5032176;28;20021;-61
2022/08/12 03:25:57;;;;;;;44.58;29.88;;;;;;;;;;5032338;28;20044;-59
2022/08/12 03:29:09;;;;;;;36.90;28.95;;;;;;;;;;5031657;28;20505;-58
2022/08/12 03:31:10;;;;;;;43.28;29.90;;;;;;;;;;5024667;28;20025;-60
2022/08/12 03:33:37;;;;;;;39.88;30.17;;;;;;;;;;5031329;28;20033;-50
2022/08/12 03:36:05;;;;;;;44.40;29.88;;;;;;;;;;5030818;28;20025;-58
2022/08/12 03:38:33;;;;;;;41.17;30.33;;;;;;;;;;5029967;28;20032;-58
2022/08/12 04:00:27;;;;;;;41.30;27.67;;;;;;;;;;5031672;28;20125;-62
2022/08/12 04:03:50;;;;;;;48.13;29.00;;;;;;;;;;5030314;28;20021;-59
2022/08/12 04:05:49;;;;;;;43.80;27.73;;;;;;;;;;5031898;28;20100;-61
2022/08/12 04:08:16;;;;;;;40.10;27.23;;;;;;;;;;5031115;28;20096;-59
2022/08/12 04:13:27;;;;;;;42.25;25.27;;;;;;;;;;5031717;28;20125;-61
2022/08/12 04:15:54;;;;;;;37.65;23.73;;;;;;;;;;5031489;28;20028;-58
2022/08/12 04:18:20;;;;;;;34.05;23.05;;;;;;;;;;5030898;28;20433;-60
2022/08/12 04:20:47;;;;;;;33.15;21.83;;;;;;;;;;5031624;28;20021;-58
2022/08/12 04:23:16;;;;;;;31.08;21.92;;;;;;;;;;5031890;28;20026;-61
2022/08/12 04:25:43;;;;;;;30.23;21.40;;;;;;;;;;5030264;28;20025;-59
2022/08/12 04:28:10;;;;;;;29.88;20.38;;;;;;;;;;5030668;28;20025;-57
2022/08/12 04:30:36;;;;;;;28.13;20.10;;;;;;;;;;5031371;28;20032;-59
2022/08/12 04:33:03;;;;;;;26.58;19.70;;;;;;;;;;5030571;28;20044;-60
2022/08/12 04:35:30;;;;;;;29.20;19.65;;;;;;;;;;5023166;28;20026;-60
2022/08/12 04:37:57;;;;;;;29.20;20.08;;;;;;;;;;5016320;28;20648;-59
2022/08/12 04:40:24;;;;;;;29.15;19.55;;;;;;;;;;5031520;28;20374;-59
2022/08/12 04:42:50;;;;;;;27.23;18.80;;;;;;;;;;5019288;28;20026;-59
2022/08/12 04:45:17;;;;;;;26.30;19.48;;;;;;;;;;5014049;28;20104;-60
2022/08/12 04:47:43;;;;;;;28.02;18.63;;;;;;;;;;5013371;28;20502;-55
2022/08/12 04:50:10;;;;;;;23.95;18.60;;;;;;;;;;5015688;28;20124;-59
2022/08/12 04:52:36;;;;;;;23.63;17.80;;;;;;;;;;5034834;28;20029;-57
2022/08/12 04:55:03;;;;;;;26.23;17.77;;;;;;;;;;5033738;28;20456;-59
2022/08/12 04:57:29;;;;;;;25.42;18.48;;;;;;;;;;5034086;28;20079;-61
2022/08/12 04:59:55;;;;;;;23.88;18.05;;;;;;;;;;5034987;28;20021;-57
2022/08/12 05:02:21;;;;;;;24.45;17.60;;;;;;;;;;5034873;28;20095;-56
2022/08/12 05:04:47;;;;;;;24.83;17.80;;;;;;;;;;5034461;28;20492;-59
2022/08/12 05:07:13;;;;;;;26.50;18.58;;;;;;;;;;5032550;28;20410;-61
2022/08/12 05:09:39;;;;;;;23.80;17.70;;;;;;;;;;5014664;28;20061;-59
2022/08/12 05:12:06;;;;;;;22.33;16.60;;;;;;;;;;5014463;28;20040;-58
2022/08/12 05:14:32;;;;;;;24.88;17.00;;;;;;;;;;5013301;28;20030;-56
2022/08/12 05:16:59;;;;;;;23.02;16.50;;;;;;;;;;5014524;28;20529;-57
2022/08/12 05:19:25;;;;;;;21.40;16.77;;;;;;;;;;5013725;28;20445;-60
2022/08/12 05:21:51;;;;;;;24.40;18.17;;;;;;;;;;5014352;28;20095;-55
2022/08/12 05:24:17;;;;;;;30.08;19.38;;;;;;;;;;5014129;28;20026;-58
2022/08/12 05:26:43;;;;;;;23.85;16.98;;;;;;;;;;5014054;28;20474;-57
2022/08/12 05:29:11;;;;;;;21.25;16.65;;;;;;;;;;5013467;28;20108;-57
2022/08/12 05:31:37;;;;;;;23.97;18.90;;;;;;;;;;5014454;28;20097;-59
2022/08/12 05:34:04;;;;;;;22.80;16.63;;;;;;;;;;5014075;28;20022;-59
2022/08/12 05:36:30;;;;;;;27.75;20.20;;;;;;;;;;5012970;28;20176;-59
2022/08/12 05:38:56;;;;;;;23.40;17.90;;;;;;;;;;5013418;28;20026;-58
2022/08/12 05:41:23;;;;;;;23.38;17.88;;;;;;;;;;5012302;28;20040;-59
2022/08/12 05:43:51;;;;;;;23.77;17.05;;;;;;;;;;5012501;28;20021;-60
2022/08/12 05:46:17;;;;;;;23.38;17.08;;;;;;;;;;5013947;28;20478;-56
2022/08/12 05:48:43;;;;;;;22.95;16.02;;;;;;;;;;5013059;28;20030;-59
2022/08/12 05:51:10;;;;;;;22.25;15.07;;;;;;;;;;5012544;28;20026;-55
2022/08/12 05:53:37;;;;;;;23.20;15.25;;;;;;;;;;5011952;28;20026;-61
2022/08/12 05:56:03;;;;;;;21.02;15.52;;;;;;;;;;5011253;28;20045;-59
2022/08/12 05:58:29;;;;;;;21.25;16.08;;;;;;;;;;5011358;28;20027;-61
2022/08/12 06:00:56;;;;;;;22.17;16.10;;;;;;;;;;5012056;28;20080;-61
2022/08/12 06:03:22;;;;;;;23.30;16.35;;;;;;;;;;5013590;28;20041;-61
2022/08/12 06:05:50;;;;;;;22.30;16.73;;;;;;;;;;5013814;28;20025;-61
2022/08/12 06:08:16;;;;;;;24.92;16.02;;;;;;;;;;5012890;28;20018;-62
2022/08/12 06:10:44;;;;;;;21.08;15.77;;;;;;;;;;5012117;28;20041;-62
2022/08/12 06:13:13;;;;;;;22.25;15.20;;;;;;;;;;5013574;28;20060;-59
2022/08/12 06:15:40;;;;;;;19.83;14.70;;;;;;;;;;5012280;28;20486;-59
2022/08/12 06:18:07;;;;;;;23.27;15.15;;;;;;;;;;5012650;28;20056;-60
2022/08/12 06:20:33;;;;;;;26.33;16.85;;;;;;;;;;5013271;28;20025;-61
2022/08/12 06:23:00;;;;;;;23.00;15.32;;;;;;;;;;5013312;28;20033;-60
2022/08/12 06:25:28;;;;;;;19.48;14.77;;;;;;;;;;5013101;28;20018;-63
2022/08/12 06:27:54;;;;;;;23.88;15.95;;;;;;;;;;5010851;28;20032;-61
2022/08/12 06:30:21;;;;;;;21.17;16.33;;;;;;;;;;5011952;28;20505;-61
2022/08/12 06:32:48;;;;;;;20.83;15.45;;;;;;;;;;5011641;28;20037;-60
2022/08/12 06:35:15;;;;;;;21.92;15.45;;;;;;;;;;5011671;28;20375;-54
2022/08/12 06:37:42;;;;;;;19.92;15.40;;;;;;;;;;5012217;28;20056;-59
2022/08/12 06:40:09;;;;;;;21.00;15.23;;;;;;;;;;5012974;28;20482;-57
2022/08/12 06:42:50;;;;;;;20.23;15.68;;;;;;;;;;5011681;28;20030;-59
2022/08/12 06:45:17;;;;;;;22.35;16.60;;;;;;;;;;5012753;28;20029;-59
2022/08/12 06:47:43;;;;;;;21.35;15.80;;;;;;;;;;5011754;28;20406;-61
2022/08/12 06:50:12;;;;;;;19.75;15.45;;;;;;;;;;5012669;28;20451;-61
2022/08/12 06:52:38;;;;;;;22.67;15.55;;;;;;;;;;5012717;28;20026;-57
2022/08/12 06:55:06;;;;;;;20.55;15.93;;;;;;;;;;5013087;28;20398;-56
2022/08/12 06:57:32;;;;;;;21.60;16.63;;;;;;;;;;5012036;28;20026;-60
2022/08/12 06:59:58;;;;;;;22.88;16.75;;;;;;;;;;5012755;28;20087;-60
2022/08/12 07:02:24;;;;;;;23.33;15.63;;;;;;;;;;5012369;28;20029;-60
2022/08/12 07:04:51;;;;;;;24.75;16.48;;;;;;;;;;5012994;28;20490;-60
2022/08/12 07:07:17;;;;;;;22.70;16.00;;;;;;;;;;5011579;28;20395;-60
2022/08/12 07:09:44;;;;;;;22.45;16.15;;;;;;;;;;5011038;28;20414;-62
2022/08/12 07:12:15;;;;;;;25.33;17.13;;;;;;;;;;5012279;28;20403;-59
2022/08/12 07:14:42;;;;;;;23.55;15.93;;;;;;;;;;5012532;28;20389;-61
2022/08/12 07:17:08;;;;;;;22.98;16.38;;;;;;;;;;5012126;28;20037;-61
2022/08/12 07:19:35;;;;;;;23.75;15.68;;;;;;;;;;5011004;28;20036;-60
2022/08/12 07:22:05;;;;;;;22.48;15.88;;;;;;;;;;5012381;28;20049;-60
2022/08/12 07:24:31;;;;;;;24.80;16.38;;;;;;;;;;5012456;28;20037;-60
2022/08/12 07:26:57;;;;;;;26.88;15.68;;;;;;;;;;5011590;28;20029;-54
2022/08/12 07:29:27;;;;;;;22.58;16.10;;;;;;;;;;5011614;28;20049;-61
2022/08/12 07:31:58;;;;;;;25.95;16.40;;;;;;;;;;5012524;28;20018;-58
2022/08/12 07:34:25;;;;;;;26.52;16.00;;;;;;;;;;5012411;28;20066;-54
2022/08/12 07:36:51;;;;;;;23.20;15.50;;;;;;;;;;5010686;28;20394;-58
2022/08/12 07:39:17;;;;;;;23.70;15.85;;;;;;;;;;5011474;28;20022;-53
2022/08/12 07:41:43;;;;;;;25.48;15.65;;;;;;;;;;5011998;28;20128;-59
2022/08/12 07:44:12;;;;;;;23.10;15.35;;;;;;;;;;5011177;28;20018;-57
2022/08/12 07:46:40;;;;;;;23.77;15.70;;;;;;;;;;5011916;28;20414;-62
2022/08/12 07:49:08;;;;;;;20.58;15.15;;;;;;;;;;5010108;28;20022;-56
2022/08/12 07:51:34;;;;;;;19.73;15.13;;;;;;;;;;5012113;28;20068;-56
2022/08/12 07:54:00;;;;;;;20.50;15.32;;;;;;;;;;5011872;28;20407;-59
2022/08/12 07:56:27;;;;;;;20.73;15.20;;;;;;;;;;5010528;28;20030;-62
2022/08/12 07:58:53;;;;;;;18.90;14.82;;;;;;;;;;5011449;28;20025;-61
2022/08/12 08:01:20;;;;;;;19.60;14.63;;;;;;;;;;5009479;28;20028;-61
2022/08/12 08:06:39;;;;;;;23.45;15.50;;;;;;;;;;5011822;28;20091;-59
2022/08/12 08:09:05;;;;;;;18.77;14.60;;;;;;;;;;5011057;28;20046;-60
2022/08/12 08:14:16;;;;;;;20.63;14.25;;;;;;;;;;5011592;28;20033;-61
2022/08/12 08:16:42;;;;;;;21.45;15.10;;;;;;;;;;5011518;28;20033;-59
2022/08/12 08:19:22;;;;;;;21.33;14.80;;;;;;;;;;5011512;28;20026;-54
2022/08/12 08:21:49;;;;;;;18.52;15.00;;;;;;;;;;5015425;28;20393;-59
2022/08/12 08:24:15;;;;;;;25.20;15.75;;;;;;;;;;5015590;28;20455;-59
2022/08/12 08:26:48;;;;;;;21.73;14.65;;;;;;;;;;5015430;28;20054;-62
2022/08/12 08:29:18;;;;;;;20.25;14.15;;;;;;;;;;5014720;28;20049;-58
2022/08/12 08:31:45;;;;;;;19.30;14.70;;;;;;;;;;5014133;28;20486;-57
2022/08/12 08:34:12;;;;;;;20.35;14.57;;;;;;;;;;5014127;28;20034;-55
2022/08/12 08:36:38;;;;;;;21.27;14.32;;;;;;;;;;5014718;28;20077;-53
2022/08/12 08:39:05;;;;;;;18.45;13.75;;;;;;;;;;5013744;28;20453;-54
2022/08/12 08:44:16;;;;;;;19.52;14.02;;;;;;;;;;5015195;28;20038;-51
2022/08/12 08:46:43;;;;;;;19.38;14.30;;;;;;;;;;5014544;28;20026;-54
2022/08/12 08:49:09;;;;;;;21.33;14.98;;;;;;;;;;5014053;28;20093;-54
2022/08/12 08:51:36;;;;;;;18.50;14.10;;;;;;;;;;5014513;28;20026;-54
2022/08/12 08:54:02;;;;;;;17.67;13.90;;;;;;;;;;5014648;28;20037;-52
2022/08/12 08:56:28;;;;;;;17.40;13.65;;;;;;;;;;5014802;28;20030;-53
2022/08/12 08:58:55;;;;;;;18.05;13.32;;;;;;;;;;5012375;28;20076;-51
2022/08/12 09:01:21;;;;;;;22.42;14.18;;;;;;;;;;5014579;28;20457;-54
2022/08/12 09:03:48;;;;;;;22.52;13.45;;;;;;;;;;5013541;28;20030;-54
2022/08/12 09:06:14;;;;;;;21.30;13.93;;;;;;;;;;5014802;28;20029;-53
2022/08/12 09:08:44;;;;;;;20.00;14.30;;;;;;;;;;5015652;28;20022;-52
2022/08/12 09:13:55;;;;;;;17.67;13.30;;;;;;;;;;5023792;28;20106;-54
2022/08/12 09:16:21;;;;;;;19.55;13.68;;;;;;;;;;5023884;28;20029;-55
2022/08/12 09:18:48;;;;;;;19.10;13.70;;;;;;;;;;5022322;28;20108;-56
2022/08/12 09:21:14;;;;;;;19.85;13.65;;;;;;;;;;5023214;28;20022;-55
2022/08/12 09:23:41;;;;;;;18.17;13.13;;;;;;;;;;5023361;28;20026;-53
2022/08/12 09:26:08;;;;;;;18.38;13.38;;;;;;;;;;5024804;28;20101;-56
2022/08/12 09:28:34;;;;;;;18.08;13.18;;;;;;;;;;5022216;28;20538;-56
2022/08/12 09:31:00;;;;;;;21.13;13.73;;;;;;;;;;5024131;28;20105;-53
2022/08/12 09:33:32;;;;;;;18.67;14.20;;;;;;;;;;5022487;28;20022;-53
2022/08/12 09:36:03;;;;;;;19.88;13.30;;;;;;;;;;5023207;28;20036;-56
2022/08/12 09:38:29;;;;;;;17.63;13.77;;;;;;;;;;5033139;28;20026;-55
2022/08/12 09:40:56;;;;;;;17.08;12.57;;;;;;;;;;5033587;28;20022;-55
2022/08/12 09:46:09;;;;;;;19.23;12.90;;;;;;;;;;5033826;28;20036;-53
2022/08/12 09:48:35;;;;;;;17.67;14.00;;;;;;;;;;5038044;28;20030;-53
2022/08/12 09:51:01;;;;;;;17.55;14.20;;;;;;;;;;5040222;28;20055;-55
2022/08/12 09:53:27;;;;;;;19.13;13.68;;;;;;;;;;5033399;28;20021;-54
2022/08/12 09:55:57;;;;;;;17.98;13.27;;;;;;;;;;5033699;28;20366;-53
2022/08/12 09:58:30;;;;;;;17.58;12.75;;;;;;;;;;5032986;28;20030;-54
2022/08/12 10:01:00;;;;;;;19.55;12.48;;;;;;;;;;5033071;28;20033;-53
2022/08/12 10:03:27;;;;;;;16.30;13.02;;;;;;;;;;5033468;28;20086;-62
2022/08/12 10:05:53;;;;;;;17.08;12.85;;;;;;;;;;5031714;28;20048;-62
2022/08/12 10:08:20;;;;;;;19.45;13.00;;;;;;;;;;5032175;28;20397;-58
2022/08/12 10:13:42;;;;;;;19.92;13.02;;;;;;;;;;5031736;28;20123;-60
2022/08/12 10:16:10;;;;;;;22.45;13.20;;;;;;;;;;5033155;28;20084;-59
2022/08/12 10:18:37;;;;;;;16.70;12.85;;;;;;;;;;5030730;28;20116;-64
2022/08/12 10:21:10;;;;;;;17.75;13.38;;;;;;;;;;5031490;28;20379;-62
2022/08/12 10:23:36;;;;;;;16.83;12.48;;;;;;;;;;5031498;28;20099;-62
2022/08/12 10:31:31;;;;;;;17.55;12.27;;;30.20;41.20;;;;;;5033053;28;20024;-63
2022/08/12 10:33:57;;;;;;;16.52;11.95;;;29.80;37.90;;;;;;5032682;28;20026;-64
2022/08/12 10:36:23;;;;;;;17.15;12.13;;;30.00;38.20;;;;;;5032701;28;20029;-62
2022/08/12 10:38:49;;;;;;;16.50;13.00;;;30.10;38.60;;;;;;5030650;28;20030;-62
2022/08/12 10:44:04;;;;;;;18.90;12.95;;;30.20;38.40;;;;;;5031669;28;20564;-63
2022/08/12 10:46:30;;;;;;;17.85;13.00;;;30.30;37.40;;;;;;5032083;28;20108;-63
2022/08/12 10:48:56;;;;;;;17.25;13.48;;;30.40;39.60;;;;;;5031070;28;20079;-62
2022/08/12 10:51:21;;;;;;;17.00;12.80;;;30.40;36.70;;;;;;5031746;28;20037;-63
2022/08/12 10:53:47;;;;;;;17.63;12.57;;;30.10;37.70;;;;;;5031365;28;20038;-62
2022/08/12 10:56:17;;;;;;;18.25;13.40;;;30.00;35.90;;;;;;5032394;28;20029;-65
2022/08/12 10:58:44;;;;;;;17.13;13.00;;;30.20;37.90;;;;;;5031423;28;20032;-66
2022/08/12 11:01:09;;;;;;;17.45;13.25;;;30.10;37.20;;;;;;5032185;28;20026;-67
2022/08/12 11:03:36;;;;;;;20.50;12.20;;;30.10;37.00;;;;;;5032358;28;20040;-67
2022/08/12 11:06:08;;;;;;;18.73;12.48;;;30.10;37.30;;;;;;5032032;28;20037;-67
2022/08/12 11:08:36;;;;;;;15.93;12.60;;;30.20;37.90;;;;;;5031249;28;20068;-66
2022/08/12 11:11:07;;;;;;;16.75;12.38;;;30.30;38.40;;;;;;5030032;28;20390;-67
2022/08/12 11:13:36;;;;;;;19.80;12.73;;;30.50;39.40;;;;;;5031438;28;20036;-67
2022/08/12 11:16:05;;;;;;;18.13;12.68;;;;;;;;;;5030926;28;20550;-67
2022/08/12 11:18:31;;;;;;;17.27;12.93;;;;;;;;;;5028211;28;20068;-66
2022/08/12 11:20:58;;;;;;;16.92;13.00;;;;;;;;;;5022332;28;20025;-67
2022/08/12 11:23:24;;;;;;;18.88;13.07;;;;;;;;;;5021076;28;20014;-67
2022/08/12 11:25:51;;;;;;;17.45;13.10;;;;;;;;;;5022024;28;20021;-67
2022/08/12 11:28:17;;;;;;;16.55;13.48;;;;;;;;;;5028826;28;20060;-66
2022/08/12 11:30:43;;;;;;;19.42;14.23;;;;;;;;;;5021048;28;20025;-66
2022/08/12 11:33:10;;;;;;;17.60;13.45;;;;;;;;;;5021142;28;20084;-66
2022/08/12 11:35:37;;;;;;;17.60;13.55;;;;;;;;;;5021419;28;21387;-66
2022/08/12 11:38:03;;;;;;;19.08;13.50;;;;;;;;;;5021249;28;20132;-56
2022/08/12 11:40:29;;;;;;;16.98;13.73;;;;;;;;;;5021514;28;20022;-58
2022/08/12 11:42:59;;;;;;;18.85;13.57;;;;;;;;;;5020394;28;20025;-58
2022/08/12 11:45:26;;;;;;;16.60;13.23;;;;;;;;;;5020332;28;20014;-58
2022/08/12 11:47:53;;;;;;;16.33;13.63;;;;;;;;;;5019035;28;20017;-57
2022/08/12 11:50:20;;;;;;;16.85;13.32;;;;;;;;;;5022095;28;20017;-58
2022/08/12 11:52:49;;;;;;;17.65;14.15;;;;;;;;;;5020862;28;20115;-56
2022/08/12 11:55:16;;;;;;;16.42;13.48;;;;;;;;;;5022774;28;20021;-58
2022/08/12 11:57:52;;;;;;;19.02;13.85;;;;;;;;;;5026982;28;20053;-58
2022/08/12 12:00:18;;;;;;;18.00;13.90;;;;;;;;;;5021228;28;20175;-58
2022/08/12 12:02:44;;;;;;;19.00;13.20;;;;;;;;;;5023412;28;20100;-56
2022/08/12 12:05:11;;;;;;;15.85;12.85;;;;;;;;;;5023400;28;20080;-57
2022/08/12 12:07:40;;;;;;;19.75;14.35;;;;;;;;;;5022634;28;20025;-57
2022/08/12 12:10:06;;;;;;;17.77;13.50;;;;;;;;;;5019208;28;20018;-56
2022/08/12 12:12:33;;;;;;;19.25;14.30;;;;;;;;;;5009588;28;20096;-55
2022/08/12 12:14:59;;;;;;;16.63;13.32;;;;;;;;;;5010345;28;20538;-56
2022/08/12 12:17:25;;;;;;;17.35;13.25;;;;;;;;;;5010898;28;20630;-57
2022/08/12 12:19:52;;;;;;;16.65;13.52;;;;;;;;;;5011731;28;20544;-57
2022/08/12 12:22:18;;;;;;;17.33;13.73;;;;;;;;;;5031377;28;20033;-53
2022/08/12 12:24:48;;;;;;;17.90;14.43;;;;;;;;;;5031342;28;20030;-62
2022/08/12 12:27:17;;;;;;;18.35;13.77;;;;;;;;;;5030491;28;20021;-61
2022/08/12 12:29:43;;;;;;;16.30;13.63;;;;;;;;;;4675695;28;9999588;-58
2022/08/12 12:32:09;;;;;;;17.13;13.70;;;;;;;;;;5012498;28;20060;-54
2022/08/12 12:34:35;;;;;;;17.20;13.70;;;;;;;;;;5020433;28;20025;-59
2022/08/12 12:37:01;;;;;;;17.92;14.18;;;;;;;;;;5010262;28;20022;-57
2022/08/12 12:39:27;;;;;;;17.65;14.05;;;;;;;;;;5024237;28;20084;-58
2022/08/12 12:41:53;;;;;;;16.67;13.77;;;;;;;;;;5027949;28;20053;-58
2022/08/12 12:44:19;;;;;;;18.40;13.85;;;;;;;;;;5028330;28;20131;-63
2022/08/12 12:46:45;;;;;;;18.85;13.77;;;;;;;;;;5023684;28;20177;-50
2022/08/12 12:49:11;;;;;;;17.13;13.52;;;;;;;;;;5008183;28;20037;-51
2022/08/12 12:51:37;;;;;;;16.02;13.30;;;;;;;;;;5009281;28;20545;-53
2022/08/12 12:54:04;;;;;;;17.10;12.95;;;;;;;;;;5008363;28;20026;-52
2022/08/12 12:56:30;;;;;;;18.48;12.75;;;;;;;;;;5008562;28;20044;-52
2022/08/12 12:58:56;;;;;;;16.48;13.07;;;;;;;;;;5007000;28;20048;-56
2022/08/12 13:01:26;;;;;;;17.55;12.63;;;;;;;;;;5011039;28;20026;-58
2022/08/12 13:03:55;;;;;;;22.02;17.35;;;;;;;;;;5015869;28;20613;-54
2022/08/12 13:06:28;;;;;;;17.58;14.35;;;;;;;;;;5010658;28;20038;-54
2022/08/12 13:08:55;;;;;;;17.67;14.38;;;;;;;;;;5010873;28;20022;-55
2022/08/12 13:11:21;;;;;;;15.98;13.15;;;;;;;;;;5011185;28;20611;-59
2022/08/12 13:13:52;;;;;;;16.57;13.50;;;;;;;;;;5010939;28;20498;-55
2022/08/12 13:16:22;;;;;;;16.73;13.48;;;;;;;;;;5011197;28;20030;-54
2022/08/12 13:18:48;;;;;;;18.67;13.68;;;;;;;;;;5021554;28;20029;-57
2022/08/12 13:21:18;;;;;;;17.80;12.85;;;;;;;;;;5029790;28;20064;-54
2022/08/12 13:23:44;;;;;;;17.77;12.65;;;;;;;;;;5030279;28;20528;-56
2022/08/12 13:26:16;;;;;;;17.20;12.77;;;;;;;;;;5030778;28;20025;-58
2022/08/12 13:28:44;;;;;;;17.40;13.35;;;;;;;;;;5030496;28;20268;-58
2022/08/12 13:31:10;;;;;;;16.25;13.32;;;;;;;;;;5030366;28;20111;-51
2022/08/12 13:33:37;;;;;;;17.27;12.80;;;;;;;;;;5031368;28;20030;-54
2022/08/12 13:36:03;;;;;;;20.73;14.82;;;;;;;;;;5029445;28;20029;-52
2022/08/12 13:38:38;;;;;;;16.10;13.02;;;;;;;;;;5029489;28;20497;-53
2022/08/12 13:41:05;;;;;;;15.93;13.25;;;;;;;;;;5028790;28;20501;-56
2022/08/12 13:43:32;;;;;;;16.50;13.27;;;;;;;;;;5018955;28;20036;-55
2022/08/12 13:45:58;;;;;;;17.80;13.45;;;;;;;;;;5020617;28;20022;-53
2022/08/12 13:48:24;;;;;;;16.67;13.27;;;;;;;;;;5019909;28;20036;-50
2022/08/12 13:50:51;;;;;;;18.38;13.75;;;;;;;;;;5018804;28;20297;-54
2022/08/12 13:53:18;;;;;;;17.10;12.88;;;;;;;;;;5030181;28;20713;-52
2022/08/12 13:55:47;;;;;;;16.83;12.57;;;;;;;;;;5013496;28;20034;-52
2022/08/12 13:58:16;;;;;;;16.48;13.05;;;;;;;;;;5017013;28;20029;-55
2022/08/12 14:00:48;;;;;;;18.73;13.55;;;;;;;;;;5022232;28;20505;-52
2022/08/12 14:03:15;;;;;;;16.00;12.77;;;;;;;;;;5017190;28;20079;-55
2022/08/12 14:05:41;;;;;;;16.13;13.13;;;;;;;;;;5028060;28;20402;-55
2022/08/12 14:08:09;;;;;;;17.95;13.30;;;;;;;;;;5021824;28;20123;-53
2022/08/12 14:10:36;;;;;;;18.83;13.40;;;;;;;;;;5021647;28;20174;-54
2022/08/12 14:13:03;;;;;;;17.92;13.20;;;;;;;;;;5026278;28;20029;-57
2022/08/12 14:15:30;;;;;;;18.10;13.55;;;;;;;;;;5033198;28;20128;-53
2022/08/12 14:18:04;;;;;;;17.07;13.20;;;;;;;;;;5031672;28;20029;-53
2022/08/12 14:20:30;;;;;;;16.70;13.73;;;;;;;;;;5031443;28;20022;-53
2022/08/12 14:22:58;;;;;;;16.45;12.32;;;;;;;;;;5028333;28;20095;-53
2022/08/12 14:25:27;;;;;;;16.67;12.93;;;;;;;;;;5033326;28;20056;-54
2022/08/12 14:27:54;;;;;;;18.20;13.48;;;;;;;;;;5031010;28;20129;-54
2022/08/12 14:30:20;;;;;;;16.45;13.00;;;;;;;;;;5031239;28;20068;-49
2022/08/12 14:32:46;;;;;;;19.20;13.35;;;;;;;;;;5031122;28;20025;-55
2022/08/12 14:35:13;;;;;;;17.30;12.88;;;;;;;;;;5024715;28;20030;-52
2022/08/12 14:37:39;;;;;;;18.20;12.90;;;;;;;;;;5023680;28;20021;-52
2022/08/12 14:40:06;;;;;;;16.25;12.70;;;;;;;;;;5032437;28;20086;-53
2022/08/12 14:42:32;;;;;;;18.17;14.23;;;;;;;;;;5029997;28;20026;-49
2022/08/12 14:44:58;;;;;;;17.40;12.73;;;;;;;;;;5032872;28;20268;-54
2022/08/12 14:47:25;;;;;;;15.40;12.00;;;;;;;;;;5031892;28;20032;-49
2022/08/12 14:49:51;;;;;;;17.13;12.33;;;;;;;;;;5031016;28;20025;-53
2022/08/12 14:52:17;;;;;;;16.75;12.38;;;;;;;;;;5030778;28;20393;-51
2022/08/12 14:54:43;;;;;;;16.02;11.95;;;;;;;;;;5032714;28;20029;-54
2022/08/12 14:57:10;;;;;;;16.10;12.10;;;;;;;;;;5032293;28;20383;-48
2022/08/12 15:02:21;;;;;;;16.85;12.13;;;;;;;;;;5032455;28;20045;-56
2022/08/12 15:04:54;;;;;;;23.33;20.88;;;;;;;;;;5020506;28;20029;-52
2022/08/12 15:07:20;;;;;;;15.98;13.10;;;;;;;;;;5011892;28;20022;-53
2022/08/12 15:09:47;;;;;;;17.52;11.90;;;;;;;;;;5012397;28;20026;-52
2022/08/12 15:12:13;;;;;;;16.48;12.15;;;;;;;;;;4669493;28;9999883;-54
2022/08/12 15:14:41;;;;;;;17.30;12.23;;;;;;;;;;5019605;28;20033;-54
2022/08/12 15:17:07;;;;;;;15.80;12.18;;;;;;;;;;5018897;28;20025;-50
2022/08/12 15:19:33;;;;;;;17.55;12.40;;;;;;;;;;5018857;28;20026;-53
2022/08/12 15:21:59;;;;;;;16.73;12.25;;;;;;;;;;5017221;28;20025;-53
2022/08/12 15:24:25;;;;;;;15.68;12.30;;;;;;;;;;5018726;28;20223;-57
2022/08/12 15:26:52;;;;;;;18.60;12.90;;;;;;;;;;5018532;28;20092;-49
2022/08/12 15:29:18;;;;;;;16.30;12.75;;;;;;;;;;5016039;28;20030;-53
2022/08/12 15:31:44;;;;;;;18.48;13.00;;;;;;;;;;5019503;28;20018;-52
2022/08/12 15:34:10;;;;;;;15.95;12.52;;;;;;;;;;5018955;28;20036;-51
2022/08/12 15:36:37;;;;;;;16.05;13.02;;;;;;;;;;5017091;28;20135;-52
2022/08/12 15:39:04;;;;;;;16.38;12.90;;;;;;;;;;5020178;28;20030;-52
2022/08/12 15:41:30;;;;;;;16.90;12.88;;;;;;;;;;5022035;28;20482;-56
2022/08/12 15:43:56;;;;;;;18.27;12.45;;;;;;;;;;5023432;28;20161;-58
2022/08/12 15:46:23;;;;;;;15.90;11.82;;;;;;;;;;5017341;28;20109;-58
2022/08/12 15:48:49;;;;;;;16.67;12.23;;;;;;;;;;5017070;28;20021;-60
2022/08/12 15:51:29;;;;;;;16.65;12.80;;;;;;;;;;5017317;28;20040;-59
2022/08/12 15:54:04;;;;;;;17.30;12.70;;;;;;;;;;5018412;28;20030;-59
2022/08/12 15:56:32;;;;;;;17.40;14.05;;;;;;;;;;5018081;28;20053;-57
2022/08/12 15:58:57;;;;;;;17.70;12.85;;;;;;;;;;5027370;28;20072;-57
2022/08/12 16:01:24;;;;;;;16.73;12.55;;;;;;;;;;5027781;28;20061;-57
2022/08/12 16:03:51;;;;;;;16.00;12.80;;;;;;;;;;5023921;28;20081;-57
2022/08/12 16:06:17;;;;;;;19.17;13.40;;;;;;;;;;5008101;28;20557;-57